Time;durP1;ratioP1;P1;durP2;ratioP2;P2;SDS_P1;SDS_P2;PMS_P1;PMS_P2;Temp;Humidity;BMP_temperature;BMP_pressure;BME280_temperature;BME280_humidity;BME280_pressure;Samples;Min_cycle;Max_cycle;Signal;HPM_P1;HPM_P2
2022/08/25 00:02:07;;;;;;;21.77;9.32;;;19.70;99.90;;;;;;10163343;29;20239;-89
2022/08/25 00:07:11;;;;;;;12.90;9.40;;;19.60;99.90;;;;;;10155844;29;20259;-90
2022/08/25 00:12:19;;;;;;;18.85;9.27;;;19.70;99.90;;;;;;10157887;29;20264;-90
2022/08/25 00:17:22;;;;;;;15.82;9.93;;;19.70;99.90;;;;;;10153495;29;20231;-90
2022/08/25 00:22:25;;;;;;;16.17;8.85;;;19.60;99.90;;;;;;10154983;29;20295;-90
2022/08/25 00:27:27;;;;;;;20.77;8.98;;;19.50;99.90;;;;;;10171740;29;20325;-90
2022/08/25 00:32:30;;;;;;;19.13;10.00;;;19.40;99.90;;;;;;10172063;29;20231;-90
2022/08/25 00:37:34;;;;;;;14.05;8.27;;;19.30;99.90;;;;;;10166590;29;20318;-90
2022/08/25 00:42:37;;;;;;;24.15;8.90;;;19.30;99.90;;;;;;10131166;29;20243;-90
2022/08/25 00:47:40;;;;;;;14.20;9.30;;;19.10;99.90;;;;;;10170611;29;20267;-90
2022/08/25 00:52:46;;;;;;;16.65;9.50;;;19.10;99.90;;;;;;10153873;29;20939;-90
2022/08/25 00:57:56;;;;;;;18.13;9.13;;;18.90;99.90;;;;;;10168741;29;20207;-90
2022/08/25 01:03:00;;;;;;;17.33;9.02;;;18.80;99.90;;;;;;10154032;29;20235;-90
2022/08/25 01:08:05;;;;;;;13.77;8.93;;;18.70;99.90;;;;;;10161315;29;20228;-90
2022/08/25 01:13:13;;;;;;;18.38;9.68;;;18.70;99.90;;;;;;10166045;29;20677;-90
2022/08/25 01:18:18;;;;;;;11.82;10.40;;;18.70;99.90;;;;;;10154461;29;20641;-90
2022/08/25 01:23:22;;;;;;;22.10;10.05;;;18.80;99.90;;;;;;10140672;29;20244;-90
2022/08/25 01:28:25;;;;;;;17.30;10.40;;;18.80;99.90;;;;;;10114440;29;20767;-90
2022/08/25 01:33:27;;;;;;;18.85;10.18;;;18.70;99.90;;;;;;10150723;29;20235;-90
2022/08/25 01:38:30;;;;;;;19.35;11.25;;;18.80;99.90;;;;;;10169927;29;20260;-90
2022/08/25 01:43:37;;;;;;;19.20;11.18;;;18.70;99.90;;;;;;10159557;29;20406;-91
2022/08/25 01:48:40;;;;;;;17.52;11.50;;;18.70;99.90;;;;;;10114594;29;20224;-89
2022/08/25 01:53:43;;;;;;;20.58;11.77;;;18.60;99.90;;;;;;10167033;29;20384;-89
2022/08/25 01:58:47;;;;;;;22.35;12.60;;;18.60;99.90;;;;;;10167629;29;20237;-89
2022/08/25 02:03:52;;;;;;;24.73;12.90;;;18.70;99.90;;;;;;10151758;29;20247;-89
2022/08/25 02:08:57;;;;;;;32.97;14.40;;;18.70;99.90;;;;;;10168921;29;20671;-90
2022/08/25 02:14:00;;;;;;;22.92;15.18;;;18.60;99.90;;;;;;10167662;29;20215;-90
2022/08/25 02:19:08;;;;;;;19.48;14.52;;;18.60;99.90;;;;;;10168758;29;20239;-89
2022/08/25 02:24:11;;;;;;;29.50;15.15;;;18.70;99.90;;;;;;10143071;29;20247;-90
2022/08/25 02:29:15;;;;;;;24.77;15.23;;;18.70;99.90;;;;;;10136339;29;20632;-90
2022/08/25 02:34:18;;;;;;;25.73;16.17;;;18.90;99.90;;;;;;10149682;29;20207;-89
2022/08/25 02:39:20;;;;;;;29.60;16.33;;;18.90;99.90;;;;;;10164648;29;20791;-89
2022/08/25 02:44:23;;;;;;;26.52;16.00;;;18.80;99.90;;;;;;10181622;29;20731;-89
2022/08/25 02:49:26;;;;;;;23.42;16.35;;;18.90;99.90;;;;;;10159212;29;20260;-89
2022/08/25 02:54:29;;;;;;;20.75;16.58;;;18.80;99.90;;;;;;10142360;29;20330;-89
2022/08/25 02:59:32;;;;;;;25.35;17.73;;;18.70;99.90;;;;;;10149648;29;20212;-89
2022/08/25 03:04:35;;;;;;;25.70;17.58;;;18.60;99.90;;;;;;10173574;29;20247;-89
2022/08/25 03:09:37;;;;;;;31.55;18.13;;;18.50;99.90;;;;;;10151744;29;20271;-90
2022/08/25 03:14:40;;;;;;;23.88;17.83;;;18.40;99.90;;;;;;10138706;29;20271;-90
2022/08/25 03:19:45;;;;;;;23.40;16.77;;;18.40;99.90;;;;;;10181028;29;20293;-90
2022/08/25 03:24:48;;;;;;;29.52;17.90;;;18.30;99.90;;;;;;10178695;29;20259;-90
2022/08/25 03:29:51;;;;;;;26.30;16.73;;;18.30;99.90;;;;;;10159440;29;20243;-89
2022/08/25 03:34:53;;;;;;;26.58;17.42;;;18.30;99.90;;;;;;10175161;29;20239;-89
2022/08/25 03:39:56;;;;;;;24.70;17.30;;;18.40;99.90;;;;;;10172221;29;20263;-90
2022/08/25 03:44:58;;;;;;;27.83;18.23;;;18.40;99.90;;;;;;10157691;29;20282;-90
2022/08/25 03:50:01;;;;;;;19.60;14.30;;;18.60;99.90;;;;;;10160205;29;20232;-89
2022/08/25 03:55:07;;;;;;;27.95;18.33;;;18.70;99.90;;;;;;10134764;29;20213;-90
2022/08/25 04:00:11;;;;;;;31.27;19.63;;;18.90;99.90;;;;;;10142752;29;20685;-91
2022/08/25 04:05:14;;;;;;;16.88;13.27;;;19.00;99.90;;;;;;10170319;29;20266;-90
2022/08/25 04:10:17;;;;;;;26.77;16.90;;;19.40;99.90;;;;;;10164143;29;20276;-89
2022/08/25 04:15:19;;;;;;;25.80;15.98;;;19.60;99.90;;;;;;10134110;29;20236;-89
2022/08/25 04:20:22;;;;;;;24.25;15.73;;;19.70;99.90;;;;;;10158969;29;20243;-89
2022/08/25 04:25:24;;;;;;;23.48;15.38;;;19.90;99.90;;;;;;10143462;29;20255;-89
2022/08/25 04:30:27;;;;;;;13.57;10.65;;;;;;;;;;10119012;29;20272;-89
2022/08/25 04:35:29;;;;;;;17.90;12.57;;;20.60;99.90;;;;;;10170338;29;20215;-90
2022/08/25 04:40:33;;;;;;;17.50;11.80;;;20.70;99.90;;;;;;10169992;29;20267;-90
2022/08/25 04:45:37;;;;;;;20.25;12.52;;;20.70;99.90;;;;;;10139835;29;20812;-88
2022/08/25 04:50:40;;;;;;;23.52;16.33;;;20.40;99.90;;;;;;10156199;29;20756;-89
2022/08/25 04:55:45;;;;;;;29.35;17.42;;;20.10;99.90;;;;;;10171267;29;20645;-89
2022/08/25 05:00:48;;;;;;;27.67;17.38;;;19.90;99.90;;;;;;10153549;29;20239;-90
2022/08/25 05:05:51;;;;;;;29.90;17.65;;;19.80;99.90;;;;;;10160587;29;20263;-90
2022/08/25 05:10:55;;;;;;;29.95;17.05;;;19.90;99.90;;;;;;10169067;29;20212;-89
2022/08/25 05:15:59;;;;;;;20.20;14.55;;;19.80;99.90;;;;;;10151572;29;20282;-89
2022/08/25 05:21:05;;;;;;;15.38;12.18;;;20.00;99.90;;;;;;10144988;29;20235;-93
2022/08/25 05:26:14;;;;;;;26.92;16.10;;;20.10;99.90;;;;;;10142138;29;20271;-87
2022/08/25 05:31:23;;;;;;;22.73;15.98;;;20.70;99.90;;;;;;10153409;29;20239;-87
2022/08/25 05:36:27;;;;;;;25.27;17.58;;;20.60;99.90;;;;;;10168888;29;20263;-88
2022/08/25 05:41:30;;;;;;;26.60;14.85;;;20.70;99.90;;;;;;10152782;29;20783;-88
2022/08/25 05:46:33;;;;;;;23.45;16.63;;;21.10;99.90;;;;;;10154700;29;20271;-89
2022/08/25 05:51:35;;;;;;;17.50;14.68;;;21.10;99.90;;;;;;10169552;29;20228;-88
2022/08/25 05:56:38;;;;;;;24.40;14.73;;;21.10;99.90;;;;;;10149847;29;20298;-88
2022/08/25 06:07:02;;;;;;;21.70;14.35;;;20.60;99.90;;;;;;10159309;29;20255;-88
2022/08/25 06:12:06;;;;;;;17.92;12.52;;;20.40;99.90;;;;;;10166576;29;20271;-88
2022/08/25 06:17:16;;;;;;;23.20;13.82;;;20.70;99.90;;;;;;10147673;29;20232;-88
2022/08/25 06:22:24;;;;;;;20.40;13.63;;;20.70;99.90;;;;;;10164163;29;20242;-88
2022/08/25 06:27:27;;;;;;;15.68;13.13;;;21.10;99.90;;;;;;10141919;29;20672;-87
2022/08/25 06:32:34;;;;;;;13.23;11.10;;;21.00;99.90;;;;;;10137683;29;20240;-87
2022/08/25 06:37:38;;;;;;;17.98;12.55;;;21.60;99.90;;;;;;10130374;29;20314;-88
2022/08/25 06:42:40;;;;;;;24.00;12.43;;;21.40;99.90;;;;;;10162489;29;20298;-88
2022/08/25 06:47:44;;;;;;;18.65;11.98;;;21.80;99.90;;;;;;10139647;29;20268;-90
2022/08/25 06:52:46;;;;;;;13.18;11.57;;;22.10;99.90;;;;;;10145474;29;20279;-89
2022/08/25 06:57:52;;;;;;;22.25;11.80;;;22.20;99.90;;;;;;10156798;29;20238;-89
2022/08/25 07:02:57;;;;;;;18.17;11.43;;;22.00;99.90;;;;;;10149376;29;20235;-89
2022/08/25 07:08:00;;;;;;;16.40;11.48;;;21.90;99.90;;;;;;10154986;29;20314;-90
2022/08/25 07:13:03;;;;;;;17.15;13.18;;;22.40;99.90;;;;;;10174750;29;20231;-90
2022/08/25 07:18:07;;;;;;;16.63;11.63;;;22.70;99.90;;;;;;10157445;29;20291;-89
2022/08/25 07:23:10;;;;;;;23.65;12.75;;;22.60;99.90;;;;;;10173683;29;20239;-90
2022/08/25 07:28:13;;;;;;;19.33;11.65;;;22.60;99.90;;;;;;10172789;29;20262;-89
2022/08/25 07:33:16;;;;;;;18.25;12.30;;;22.80;99.90;;;;;;10169458;29;20265;-90
2022/08/25 07:38:18;;;;;;;14.30;10.90;;;22.90;99.90;;;;;;10155955;29;20335;-89
2022/08/25 07:43:22;;;;;;;10.60;9.50;;;23.00;99.90;;;;;;10144542;29;20227;-89
2022/08/25 07:48:24;;;;;;;14.35;10.30;;;23.50;99.90;;;;;;10155230;29;20299;-90
2022/08/25 07:53:27;;;;;;;14.23;10.93;;;23.60;99.90;;;;;;10155610;29;20239;-90
2022/08/25 07:58:29;;;;;;;21.60;10.93;;;23.60;99.90;;;;;;10171492;29;20264;-89
2022/08/25 08:03:33;;;;;;;15.35;10.70;;;23.90;99.90;;;;;;10171405;29;20239;-89
2022/08/25 08:08:53;;;;;;;14.75;10.43;;;24.20;99.90;;;;;;10177846;29;20250;-88
2022/08/25 08:14:00;;;;;;;12.57;10.35;;;24.10;99.90;;;;;;10188739;29;20235;-89
2022/08/25 08:19:03;;;;;;;13.50;9.23;;;24.30;99.90;;;;;;10170818;29;20235;-88
2022/08/25 08:24:06;;;;;;;12.73;10.13;;;24.40;99.90;;;;;;10169455;29;20631;-89
2022/08/25 08:29:29;;;;;;;19.67;9.98;;;24.30;99.90;;;;;;10133533;29;20286;-88
2022/08/25 08:34:33;;;;;;;13.70;10.80;;;24.20;99.90;;;;;;10142693;29;20670;-89
2022/08/25 08:39:36;;;;;;;16.92;10.77;;;24.10;99.90;;;;;;10168948;29;20315;-89
2022/08/25 08:45:03;;;;;;;16.63;10.30;;;24.20;99.90;;;;;;10151713;29;20718;-89
2022/08/25 08:50:14;;;;;;;12.93;9.95;;;24.20;99.90;;;;;;10167325;29;20263;-89
2022/08/25 08:55:37;;;;;;;19.05;10.02;;;24.00;99.90;;;;;;10143261;29;20244;-89
2022/08/25 09:00:45;;;;;;;12.00;10.77;;;24.30;99.90;;;;;;10133012;29;20236;-89
2022/08/25 09:05:56;;;;;;;11.15;10.10;;;24.50;99.90;;;;;;10155843;29;20294;-90
2022/08/25 09:11:19;;;;;;;11.95;10.65;;;24.80;99.90;;;;;;10170230;29;20263;-89
2022/08/25 09:16:56;;;;;;;15.38;9.63;;;25.00;99.90;;;;;;10153693;29;20235;-89
2022/08/25 09:22:13;;;;;;;10.73;9.60;;;25.00;99.90;;;;;;10152691;29;20247;-89
2022/08/25 09:27:45;;;;;;;19.52;10.18;;;25.00;99.90;;;;;;10152355;29;20827;-89
2022/08/25 09:32:52;;;;;;;10.75;9.25;;;25.10;99.90;;;;;;10167961;29;20279;-89
2022/08/25 09:38:09;;;;;;;20.65;10.05;;;25.20;99.90;;;;;;10153046;29;20708;-89
2022/08/25 09:43:43;;;;;;;17.02;9.38;;;25.20;99.90;;;;;;10138789;29;20235;-89
2022/08/25 09:48:48;;;;;;;15.48;9.43;;;25.20;99.90;;;;;;10094026;29;20717;-89
2022/08/25 09:54:01;;;;;;;15.93;9.00;;;25.40;99.90;;;;;;10152169;29;20263;-89
2022/08/25 09:59:18;;;;;;;10.95;9.85;;;25.50;99.90;;;;;;10175159;29;20297;-90
2022/08/25 10:04:36;;;;;;;11.80;10.75;;;25.40;99.90;;;;;;10164850;29;20243;-90
2022/08/25 10:09:42;;;;;;;17.13;9.95;;;25.40;99.90;;;;;;10168987;29;20305;-90
2022/08/25 10:14:44;;;;;;;11.55;7.43;;;25.50;99.90;;;;;;10208467;29;20291;-89
2022/08/25 10:19:54;;;;;;;11.48;10.32;;;25.50;99.90;;;;;;10165367;29;20625;-89
2022/08/25 10:24:58;;;;;;;17.02;7.95;;;25.40;99.90;;;;;;10136307;29;20259;-90
2022/08/25 10:30:20;;;;;;;14.80;7.88;;;25.60;99.90;;;;;;10167177;29;20668;-89
2022/08/25 10:35:48;;;;;;;14.60;9.38;;;25.60;99.90;;;;;;10144038;29;20287;-90
2022/08/25 10:41:02;;;;;;;14.15;7.45;;;25.60;99.90;;;;;;10163946;29;20262;-89
2022/08/25 10:46:12;;;;;;;14.77;11.13;;;25.50;99.90;;;;;;10158697;29;20247;-90
2022/08/25 10:51:34;;;;;;;13.40;7.15;;;25.60;99.90;;;;;;10174981;29;20232;-89
2022/08/25 10:57:10;;;;;;;13.75;11.05;;;25.80;99.90;;;;;;10175889;29;20235;-89
2022/08/25 11:02:37;;;;;;;12.68;11.48;;;25.50;99.90;;;;;;10161304;29;20239;-89
2022/08/25 11:07:50;;;;;;;15.15;9.73;;;25.60;99.90;;;;;;10157251;29;20263;-90
2022/08/25 11:12:58;;;;;;;14.25;12.20;;;25.70;99.90;;;;;;10175385;29;20231;-89
2022/08/25 11:18:03;;;;;;;15.15;13.63;;;25.40;99.90;;;;;;10169844;29;20255;-90
2022/08/25 11:23:32;;;;;;;15.25;13.63;;;25.40;99.90;;;;;;10161316;29;20271;-90
2022/08/25 11:28:41;;;;;;;17.45;11.38;;;25.30;99.90;;;;;;10170242;29;20224;-89
2022/08/25 11:33:44;;;;;;;15.32;13.77;;;25.40;99.90;;;;;;10145181;29;20255;-89
2022/08/25 11:39:07;;;;;;;17.08;13.15;;;25.50;99.90;;;;;;10168041;29;20264;-89
2022/08/25 11:44:21;;;;;;;17.83;15.98;;;25.30;99.90;;;;;;10185660;29;20220;-91
2022/08/25 11:49:46;;;;;;;18.15;10.73;;;25.50;99.90;;;;;;10174468;29;20275;-89
2022/08/25 11:54:48;;;;;;;18.65;16.75;;;25.60;99.90;;;;;;10156166;29;20668;-89
2022/08/25 11:59:51;;;;;;;21.92;16.15;;;25.80;99.90;;;;;;10162954;29;20238;-90
2022/08/25 12:04:54;;;;;;;19.52;9.30;;;25.90;99.90;;;;;;10139768;29;20586;-90
2022/08/25 12:10:05;;;;;;;26.90;8.23;;;26.20;99.90;;;;;;10170525;29;20219;-89
2022/08/25 12:15:23;;;;;;;22.38;9.68;;;26.50;99.90;;;;;;10182761;29;20588;-90
2022/08/25 12:20:51;;;;;;;20.52;7.00;;;26.30;99.90;;;;;;10185191;29;20629;-89
2022/08/25 12:25:59;;;;;;;16.45;12.38;;;26.40;99.90;;;;;;10173370;29;20228;-88
2022/08/25 12:31:23;;;;;;;21.08;11.20;;;26.30;99.90;;;;;;10164051;29;20207;-89
2022/08/25 12:36:30;;;;;;;21.23;12.25;;;25.90;99.90;;;;;;10211858;28;20214;-89
2022/08/25 12:41:50;;;;;;;24.08;13.52;;;25.90;99.90;;;;;;10186296;28;20257;-90
2022/08/25 12:47:25;;;;;;;25.20;11.77;;;25.80;99.90;;;;;;10184853;29;20215;-89
2022/08/25 12:52:30;;;;;;;28.13;10.13;;;25.80;99.90;;;;;;10184463;29;20192;-89
2022/08/25 12:57:43;;;;;;;20.80;14.25;;;25.80;99.90;;;;;;10186981;29;20216;-89
2022/08/25 13:03:11;;;;;;;20.15;15.10;;;25.80;99.90;;;;;;10168194;29;20196;-89
2022/08/25 13:08:24;;;;;;;19.77;9.52;;;26.00;99.90;;;;;;10186393;28;20256;-93
2022/08/25 13:13:46;;;;;;;14.45;8.27;;;25.90;99.90;;;;;;10169515;29;20208;-90
2022/08/25 13:18:49;;;;;;;17.02;10.98;;;26.60;99.90;;;;;;10169134;29;20280;-90
2022/08/25 13:23:54;;;;;;;14.80;7.65;;;26.60;99.90;;;;;;10202125;28;20196;-90
2022/08/25 13:29:25;;;;;;;21.63;12.55;;;26.50;99.90;;;;;;10207330;28;20219;-90
2022/08/25 13:34:31;;;;;;;22.35;13.00;;;26.60;99.90;;;;;;10203460;28;20191;-90
2022/08/25 13:39:37;;;;;;;20.10;14.50;;;26.40;99.90;;;;;;10206776;28;20228;-90
2022/08/25 13:44:57;;;;;;;26.25;13.77;;;26.00;99.90;;;;;;10218702;28;20219;-90
2022/08/25 13:50:30;;;;;;;24.08;15.57;;;26.20;99.90;;;;;;10203849;28;20243;-90
2022/08/25 13:55:37;;;;;;;20.98;15.90;;;26.40;99.90;;;;;;10224520;28;20192;-91
2022/08/25 14:01:24;;;;;;;17.25;10.95;;;26.20;99.90;;;;;;10200848;28;20204;-90
2022/08/25 14:06:47;;;;;;;23.08;17.02;;;26.10;99.90;;;;;;10173062;28;20228;-91
2022/08/25 14:11:57;;;;;;;20.77;17.65;;;26.10;99.90;;;;;;10176529;28;20188;-91
2022/08/25 14:17:02;;;;;;;23.08;16.02;;;26.10;99.90;;;;;;10184744;29;20205;-91
2022/08/25 14:22:25;;;;;;;19.88;10.18;;;26.20;99.90;;;;;;10219607;28;20191;-90
2022/08/25 14:27:28;;;;;;;20.35;15.88;;;26.20;99.90;;;;;;10208340;28;20235;-92
2022/08/25 14:32:30;;;;;;;20.75;15.68;;;26.50;99.90;;;;;;10182800;29;20201;-91
2022/08/25 14:37:34;;;;;;;20.52;10.93;;;26.90;99.90;;;;;;10169710;29;20224;-92
2022/08/25 14:42:38;;;;;;;20.27;15.40;;;26.50;99.90;;;;;;10169104;29;20205;-91
2022/08/25 14:47:42;;;;;;;22.00;8.70;;;26.20;99.90;;;;;;10198220;28;20236;-89
2022/08/25 14:52:51;;;;;;;18.80;15.07;;;27.00;99.90;;;;;;10209026;28;20220;-91
2022/08/25 14:57:54;;;;;;;24.80;9.13;;;26.60;99.90;;;;;;10208839;28;20208;-91
2022/08/25 15:02:56;;;;;;;23.35;13.07;;;26.70;99.90;;;;;;9875345;28;10000092;-91
2022/08/25 15:13:22;;;;;;;22.17;13.38;;;26.40;99.90;;;;;;10214810;29;20232;-90
2022/08/25 15:18:25;;;;;;;21.70;13.98;;;27.10;99.90;;;;;;10199418;29;20196;-91
2022/08/25 15:23:28;;;;;;;17.45;13.55;;;26.70;99.90;;;;;;10185115;29;20204;-92
2022/08/25 15:28:30;;;;;;;27.60;11.80;;;26.60;99.90;;;;;;10206931;29;20279;-91
2022/08/25 15:33:33;;;;;;;20.25;15.30;;;26.50;99.90;;;;;;10212247;29;20240;-91
2022/08/25 15:38:36;;;;;;;26.00;16.63;;;26.50;99.90;;;;;;10183130;29;20252;-90
2022/08/25 15:43:41;;;;;;;21.45;15.07;;;26.40;99.90;;;;;;10166493;29;20236;-91
2022/08/25 15:48:44;;;;;;;22.52;15.68;;;26.40;99.90;;;;;;10138039;29;20228;-91
2022/08/25 15:53:47;;;;;;;20.25;15.93;;;26.40;99.90;;;;;;10176333;29;20580;-90
2022/08/25 15:58:51;;;;;;;25.02;7.53;;;26.30;99.90;;;;;;10159746;29;20253;-90
2022/08/25 16:03:54;;;;;;;26.20;9.00;;;26.40;99.90;;;;;;10174670;29;20204;-91
2022/08/25 16:08:57;;;;;;;20.05;13.48;;;26.60;99.90;;;;;;10152128;29;20236;-91
2022/08/25 16:14:00;;;;;;;24.10;15.05;;;26.60;99.90;;;;;;10144663;29;20514;-91
2022/08/25 16:19:03;;;;;;;25.83;15.23;;;26.50;99.90;;;;;;10195254;29;20219;-91
2022/08/25 16:24:06;;;;;;;29.83;16.55;;;26.40;99.90;;;;;;10190204;29;20220;-91
2022/08/25 16:29:11;;;;;;;22.85;11.90;;;26.20;99.90;;;;;;10149818;29;20235;-91
2022/08/25 16:34:14;;;;;;;31.13;8.60;;;26.20;99.90;;;;;;10140451;29;20211;-91
2022/08/25 16:39:17;;;;;;;26.65;16.50;;;26.20;99.90;;;;;;10139067;29;20263;-91
2022/08/25 16:44:20;;;;;;;19.63;9.73;;;26.10;99.90;;;;;;10140901;29;20208;-91
2022/08/25 16:49:24;;;;;;;20.67;11.98;;;26.10;99.90;;;;;;10155639;29;20267;-91
2022/08/25 16:59:49;;;;;;;30.05;12.48;;;26.20;99.90;;;;;;10154278;29;20275;-91
2022/08/25 17:04:52;;;;;;;29.10;11.75;;;26.10;99.90;;;;;;10153778;29;20231;-91
2022/08/25 17:09:57;;;;;;;22.98;17.35;;;26.00;99.90;;;;;;10168768;29;20298;-90
2022/08/25 17:15:00;;;;;;;34.33;20.23;;;25.90;99.90;;;;;;10153573;29;20216;-91
2022/08/25 17:20:07;;;;;;;23.02;7.78;;;25.80;99.90;;;;;;10169622;29;20687;-91
2022/08/25 17:25:10;;;;;;;28.65;8.30;;;25.60;99.90;;;;;;10168316;29;20243;-90
2022/08/25 17:30:13;;;;;;;26.63;7.78;;;25.40;99.90;;;;;;10132865;29;20283;-91
2022/08/25 17:35:16;;;;;;;21.00;8.38;;;25.20;99.90;;;;;;10128092;29;20701;-91
2022/08/25 17:40:20;;;;;;;35.50;10.93;;;25.00;99.90;;;;;;10111064;29;20276;-90
2022/08/25 17:45:26;;;;;;;28.63;9.10;;;24.70;99.90;;;;;;10128491;29;20239;-91
2022/08/25 17:50:30;;;;;;;32.08;9.82;;;24.50;99.90;;;;;;10143148;29;20255;-88
2022/08/25 17:55:36;;;;;;;26.02;8.60;;;24.40;99.90;;;;;;10165635;29;20755;-87
2022/08/25 18:00:40;;;;;;;30.30;10.75;;;24.30;99.90;;;;;;10147653;29;20326;-83
2022/08/25 18:05:45;;;;;;;36.85;11.07;;;24.60;99.90;;;;;;10164275;29;20292;-82
2022/08/25 18:10:50;;;;;;;31.58;13.40;;;25.00;99.90;;;;;;10164475;29;20748;-81
2022/08/25 18:15:53;;;;;;;24.58;12.98;;;25.10;99.90;;;;;;10164326;29;20240;-81
2022/08/25 18:20:56;;;;;;;25.05;13.88;;;25.20;99.90;;;;;;10120610;29;20250;-83
2022/08/25 18:26:01;;;;;;;28.25;14.35;;;25.40;99.90;;;;;;10167079;29;20291;-83
2022/08/25 18:31:04;;;;;;;20.77;13.25;;;;;;;;;;10186717;29;20799;-84
2022/08/25 18:36:08;;;;;;;26.85;15.00;;;25.50;99.90;;;;;;10190012;29;20286;-84
2022/08/25 18:41:11;;;;;;;26.45;15.68;;;25.70;99.90;;;;;;9811996;29;10001434;-83
2022/08/25 18:46:15;;;;;;;19.02;13.93;;;25.80;99.90;;;;;;10125890;29;20722;-81
2022/08/25 18:51:18;;;;;;;25.55;14.82;;;25.80;99.90;;;;;;10153980;29;20263;-81
2022/08/25 18:56:24;;;;;;;28.73;14.48;;;25.00;99.90;;;;;;10164748;29;20295;-82
2022/08/25 19:01:27;;;;;;;22.88;13.77;;;25.40;99.90;;;;;;10166475;29;20768;-83
2022/08/25 19:06:30;;;;;;;17.65;13.65;;;25.60;99.90;;;;;;10133459;29;20232;-83
2022/08/25 19:11:33;;;;;;;22.85;13.88;;;25.70;99.90;;;;;;10116722;29;20296;-83
2022/08/25 19:16:38;;;;;;;22.30;13.73;;;25.80;99.90;;;;;;10143110;29;20286;-82
2022/08/25 19:21:41;;;;;;;19.23;14.05;;;25.90;99.90;;;;;;10173823;29;20211;-83
2022/08/25 19:26:45;;;;;;;21.17;8.77;;;25.90;99.90;;;;;;10143553;29;20293;-83
2022/08/25 19:31:49;;;;;;;14.90;7.80;;;23.30;99.90;;;;;;10093222;29;20308;-82
2022/08/25 19:36:55;;;;;;;19.00;12.85;;;22.40;99.90;;;;;;10160795;29;20263;-84
2022/08/25 19:41:59;;;;;;;16.77;9.95;;;22.90;99.90;;;;;;10134418;29;20260;-86
2022/08/25 19:47:05;;;;;;;20.42;8.13;;;23.90;99.90;;;;;;10163834;29;20695;-83
2022/08/25 19:52:23;;;;;;;21.83;9.32;;;24.30;99.90;;;;;;10133473;29;20224;-84
2022/08/25 19:57:28;;;;;;;22.45;8.98;;;23.20;99.90;;;;;;10145808;29;20295;-84
2022/08/25 20:02:44;;;;;;;20.42;10.70;;;22.30;99.90;;;;;;10148680;29;20271;-84
2022/08/25 20:07:48;;;;;;;24.45;12.02;;;22.20;99.90;;;;;;10095906;29;20777;-83
2022/08/25 20:12:51;;;;;;;17.88;11.00;;;22.60;99.90;;;;;;10093758;29;20293;-84
2022/08/25 20:17:54;;;;;;;22.92;11.57;;;23.70;99.90;;;;;;10097043;29;20232;-84
2022/08/25 20:24:46;;;;;;;22.55;11.02;;;24.20;99.90;;;;;;10136971;29;20286;-84
2022/08/25 20:28:20;;;;;;;15.73;12.05;;;24.50;99.90;;;;;;10162990;29;20260;-84
2022/08/25 20:33:23;;;;;;;22.80;12.85;;;24.70;99.90;;;;;;10131363;29;20307;-84
2022/08/25 20:38:29;;;;;;;20.05;13.73;;;24.80;99.90;;;;;;10133247;29;20300;-83
2022/08/25 20:43:33;;;;;;;16.83;13.38;;;25.00;99.90;;;;;;10131167;29;20244;-84
2022/08/25 20:48:37;;;;;;;24.38;13.48;;;25.10;99.90;;;;;;10158895;29;20315;-84
2022/08/25 20:53:41;;;;;;;17.85;13.48;;;25.10;99.90;;;;;;10136186;29;20295;-84
2022/08/25 20:58:44;;;;;;;21.35;15.25;;;25.20;99.90;;;;;;10173975;29;20275;-84
2022/08/25 21:03:47;;;;;;;18.77;12.98;;;25.20;99.90;;;;;;10144810;29;20264;-83
2022/08/25 21:08:49;;;;;;;17.95;13.57;;;25.30;99.90;;;;;;10129420;29;20269;-84
2022/08/25 21:13:53;;;;;;;18.48;13.50;;;25.30;99.90;;;;;;10138500;29;20273;-84
2022/08/25 21:18:57;;;;;;;20.92;14.07;;;25.20;99.90;;;;;;10160982;29;20300;-84
2022/08/25 21:24:00;;;;;;;21.30;14.85;;;25.30;99.90;;;;;;10130252;29;20232;-84
2022/08/25 21:29:03;;;;;;;24.90;13.52;;;25.30;99.90;;;;;;10143281;29;20310;-84
2022/08/25 21:34:06;;;;;;;19.98;14.32;;;25.30;99.90;;;;;;10159565;29;20240;-84
2022/08/25 21:39:12;;;;;;;20.08;14.15;;;25.40;99.90;;;;;;10133187;29;20262;-83
2022/08/25 21:44:16;;;;;;;21.55;11.13;;;25.20;99.90;;;;;;10127231;29;20712;-84
2022/08/25 21:49:19;;;;;;;15.48;13.57;;;25.20;99.90;;;;;;10129278;29;20260;-84
2022/08/25 21:54:21;;;;;;;23.95;14.95;;;25.20;99.90;;;;;;10160028;29;20216;-84
2022/08/25 21:59:28;;;;;;;22.20;14.65;;;25.20;99.90;;;;;;10160128;29;20240;-84
2022/08/25 22:04:31;;;;;;;22.02;13.65;;;25.30;99.90;;;;;;10154144;29;20239;-84
2022/08/25 22:09:34;;;;;;;23.40;13.00;;;25.30;99.90;;;;;;10131094;29;20315;-84
2022/08/25 22:14:37;;;;;;;22.73;14.27;;;25.30;99.90;;;;;;10128696;29;20243;-84
2022/08/25 22:19:41;;;;;;;21.52;14.70;;;25.20;99.90;;;;;;10158391;29;20244;-83
2022/08/25 22:24:43;;;;;;;26.33;10.10;;;25.20;99.90;;;;;;10130202;29;20240;-83
2022/08/25 22:29:46;;;;;;;23.90;14.38;;;25.00;99.90;;;;;;10147552;29;20717;-83
2022/08/25 22:34:48;;;;;;;32.63;14.48;;;25.10;99.90;;;;;;10159325;29;20576;-84
2022/08/25 22:39:51;;;;;;;23.77;14.32;;;25.10;99.90;;;;;;10118618;29;20348;-83
2022/08/25 22:44:54;;;;;;;17.95;14.55;;;25.20;99.90;;;;;;10157814;29;20252;-84
2022/08/25 22:49:57;;;;;;;24.02;14.98;;;25.30;99.90;;;;;;10133607;29;20260;-83
2022/08/25 22:55:01;;;;;;;27.25;14.73;;;25.30;99.90;;;;;;10143249;29;20236;-83
2022/08/25 23:00:06;;;;;;;32.08;14.60;;;25.20;99.90;;;;;;10159601;29;20299;-83
2022/08/25 23:05:11;;;;;;;20.88;14.63;;;25.20;99.90;;;;;;10138948;29;20232;-83
2022/08/25 23:10:13;;;;;;;20.40;13.82;;;25.20;99.90;;;;;;10147870;29;20745;-83
2022/08/25 23:15:16;;;;;;;27.27;14.38;;;25.30;99.90;;;;;;10133945;29;20256;-83
2022/08/25 23:25:46;;;;;;;20.88;13.82;;;25.20;99.90;;;;;;10129013;29;20233;-83
2022/08/25 23:30:49;;;;;;;20.50;14.38;;;25.10;99.90;;;;;;10131084;29;20297;-83
2022/08/25 23:36:04;;;;;;;22.50;10.20;;;25.10;99.90;;;;;;10153490;29;20249;-84
2022/08/25 23:41:09;;;;;;;29.70;10.15;;;24.30;99.90;;;;;;10136037;29;20331;-84
2022/08/25 23:46:13;;;;;;;30.63;10.60;;;22.60;99.90;;;;;;10153753;29;20294;-84
2022/08/25 23:51:28;;;;;;;20.65;11.32;;;21.80;99.90;;;;;;10173950;29;20314;-84
2022/08/25 23:56:33;;;;;;;30.73;11.75;;;21.40;99.90;;;;;;10150971;29;20243;-84
